sensor_id;sensor_type;location;lat;lon;timestamp;P1;durP1;ratioP1;P2;durP2;ratioP2
62338;SDS011;48368;53.406;6.214;2023-10-31T00:01:47;5.88;;;1.27;;
62338;SDS011;48368;53.406;6.214;2023-10-31T00:04:14;10.80;;;1.50;;
62338;SDS011;48368;53.406;6.214;2023-10-31T00:06:39;8.32;;;2.03;;
62338;SDS011;48368;53.406;6.214;2023-10-31T00:09:05;5.88;;;2.10;;
62338;SDS011;48368;53.406;6.214;2023-10-31T00:11:31;7.03;;;1.20;;
62338;SDS011;48368;53.406;6.214;2023-10-31T00:13:57;5.78;;;1.70;;
62338;SDS011;48368;53.406;6.214;2023-10-31T00:16:22;9.35;;;1.40;;
62338;SDS011;48368;53.406;6.214;2023-10-31T00:18:48;8.45;;;1.48;;
62338;SDS011;48368;53.406;6.214;2023-10-31T00:21:14;10.93;;;1.50;;
62338;SDS011;48368;53.406;6.214;2023-10-31T00:23:46;6.97;;;1.27;;
62338;SDS011;48368;53.406;6.214;2023-10-31T00:26:13;7.07;;;1.45;;
62338;SDS011;48368;53.406;6.214;2023-10-31T00:28:39;7.45;;;1.15;;
62338;SDS011;48368;53.406;6.214;2023-10-31T00:31:04;5.28;;;1.23;;
62338;SDS011;48368;53.406;6.214;2023-10-31T00:33:32;9.65;;;1.70;;
62338;SDS011;48368;53.406;6.214;2023-10-31T00:35:57;15.73;;;1.60;;
62338;SDS011;48368;53.406;6.214;2023-10-31T00:38:23;9.13;;;1.55;;
62338;SDS011;48368;53.406;6.214;2023-10-31T00:40:48;6.47;;;0.82;;
62338;SDS011;48368;53.406;6.214;2023-10-31T00:43:16;9.25;;;1.30;;
62338;SDS011;48368;53.406;6.214;2023-10-31T00:45:42;9.98;;;1.30;;
62338;SDS011;48368;53.406;6.214;2023-10-31T00:48:08;6.22;;;1.63;;
62338;SDS011;48368;53.406;6.214;2023-10-31T00:50:33;4.72;;;1.35;;
62338;SDS011;48368;53.406;6.214;2023-10-31T00:52:59;11.63;;;1.40;;
62338;SDS011;48368;53.406;6.214;2023-10-31T00:55:24;11.23;;;1.52;;
62338;SDS011;48368;53.406;6.214;2023-10-31T00:57:50;12.05;;;2.22;;
62338;SDS011;48368;53.406;6.214;2023-10-31T01:00:16;7.55;;;1.75;;
62338;SDS011;48368;53.406;6.214;2023-10-31T01:02:42;8.82;;;1.48;;
62338;SDS011;48368;53.406;6.214;2023-10-31T01:05:07;6.25;;;1.20;;
62338;SDS011;48368;53.406;6.214;2023-10-31T01:07:34;12.93;;;2.30;;
62338;SDS011;48368;53.406;6.214;2023-10-31T01:09:59;10.65;;;1.95;;
62338;SDS011;48368;53.406;6.214;2023-10-31T01:12:25;10.65;;;1.92;;
62338;SDS011;48368;53.406;6.214;2023-10-31T01:14:53;10.75;;;2.53;;
62338;SDS011;48368;53.406;6.214;2023-10-31T01:17:20;10.52;;;2.05;;
62338;SDS011;48368;53.406;6.214;2023-10-31T01:19:47;16.52;;;2.08;;
62338;SDS011;48368;53.406;6.214;2023-10-31T01:22:13;10.05;;;2.15;;
62338;SDS011;48368;53.406;6.214;2023-10-31T01:24:38;9.45;;;1.55;;
62338;SDS011;48368;53.406;6.214;2023-10-31T01:27:04;11.32;;;1.70;;
62338;SDS011;48368;53.406;6.214;2023-10-31T01:29:30;8.40;;;1.40;;
62338;SDS011;48368;53.406;6.214;2023-10-31T01:31:56;10.95;;;2.03;;
62338;SDS011;48368;53.406;6.214;2023-10-31T01:34:21;13.00;;;2.08;;
62338;SDS011;48368;53.406;6.214;2023-10-31T01:36:47;10.05;;;1.98;;
62338;SDS011;48368;53.406;6.214;2023-10-31T01:39:13;11.98;;;2.17;;
62338;SDS011;48368;53.406;6.214;2023-10-31T01:41:42;11.80;;;1.70;;
62338;SDS011;48368;53.406;6.214;2023-10-31T01:44:08;14.80;;;1.70;;
62338;SDS011;48368;53.406;6.214;2023-10-31T01:46:34;9.55;;;1.92;;
62338;SDS011;48368;53.406;6.214;2023-10-31T01:49:00;16.42;;;2.00;;
62338;SDS011;48368;53.406;6.214;2023-10-31T01:51:26;8.15;;;1.70;;
62338;SDS011;48368;53.406;6.214;2023-10-31T01:53:53;11.23;;;2.75;;
62338;SDS011;48368;53.406;6.214;2023-10-31T01:56:19;14.98;;;2.15;;
62338;SDS011;48368;53.406;6.214;2023-10-31T01:58:46;22.50;;;3.92;;
62338;SDS011;48368;53.406;6.214;2023-10-31T02:01:14;15.73;;;2.17;;
62338;SDS011;48368;53.406;6.214;2023-10-31T02:03:42;12.23;;;2.15;;
62338;SDS011;48368;53.406;6.214;2023-10-31T02:06:08;19.23;;;2.25;;
62338;SDS011;48368;53.406;6.214;2023-10-31T02:08:34;17.30;;;2.10;;
62338;SDS011;48368;53.406;6.214;2023-10-31T02:10:59;15.82;;;1.88;;
62338;SDS011;48368;53.406;6.214;2023-10-31T02:13:25;15.05;;;2.20;;
62338;SDS011;48368;53.406;6.214;2023-10-31T02:15:51;16.67;;;2.47;;
62338;SDS011;48368;53.406;6.214;2023-10-31T02:18:19;13.25;;;2.92;;
62338;SDS011;48368;53.406;6.214;2023-10-31T02:20:44;12.32;;;2.50;;
62338;SDS011;48368;53.406;6.214;2023-10-31T02:23:10;17.00;;;2.55;;
62338;SDS011;48368;53.406;6.214;2023-10-31T02:25:35;13.45;;;2.92;;
62338;SDS011;48368;53.406;6.214;2023-10-31T02:28:01;12.40;;;2.53;;
62338;SDS011;48368;53.406;6.214;2023-10-31T02:30:27;13.60;;;3.30;;
62338;SDS011;48368;53.406;6.214;2023-10-31T02:32:53;13.02;;;3.50;;
62338;SDS011;48368;53.406;6.214;2023-10-31T02:35:19;10.43;;;3.42;;
62338;SDS011;48368;53.406;6.214;2023-10-31T02:37:45;13.65;;;3.72;;
62338;SDS011;48368;53.406;6.214;2023-10-31T02:40:11;19.80;;;5.10;;
62338;SDS011;48368;53.406;6.214;2023-10-31T02:42:37;9.75;;;3.33;;
62338;SDS011;48368;53.406;6.214;2023-10-31T02:45:03;14.93;;;4.13;;
62338;SDS011;48368;53.406;6.214;2023-10-31T02:47:28;10.35;;;3.78;;
62338;SDS011;48368;53.406;6.214;2023-10-31T02:49:54;11.75;;;3.03;;
62338;SDS011;48368;53.406;6.214;2023-10-31T02:52:20;8.50;;;2.97;;
62338;SDS011;48368;53.406;6.214;2023-10-31T02:54:46;12.07;;;2.75;;
62338;SDS011;48368;53.406;6.214;2023-10-31T02:57:11;12.60;;;2.78;;
62338;SDS011;48368;53.406;6.214;2023-10-31T02:59:37;11.57;;;2.90;;
62338;SDS011;48368;53.406;6.214;2023-10-31T03:02:02;17.65;;;2.95;;
62338;SDS011;48368;53.406;6.214;2023-10-31T03:04:28;12.25;;;2.78;;
62338;SDS011;48368;53.406;6.214;2023-10-31T03:06:54;16.60;;;3.08;;
62338;SDS011;48368;53.406;6.214;2023-10-31T03:09:19;13.65;;;2.88;;
62338;SDS011;48368;53.406;6.214;2023-10-31T03:11:45;14.55;;;3.80;;
62338;SDS011;48368;53.406;6.214;2023-10-31T03:14:10;14.10;;;3.38;;
62338;SDS011;48368;53.406;6.214;2023-10-31T03:16:36;17.48;;;3.10;;
62338;SDS011;48368;53.406;6.214;2023-10-31T03:19:02;16.48;;;2.95;;
62338;SDS011;48368;53.406;6.214;2023-10-31T03:21:29;19.55;;;2.78;;
62338;SDS011;48368;53.406;6.214;2023-10-31T03:23:55;10.73;;;2.60;;
62338;SDS011;48368;53.406;6.214;2023-10-31T03:26:21;20.67;;;2.90;;
62338;SDS011;48368;53.406;6.214;2023-10-31T03:28:46;10.15;;;2.17;;
62338;SDS011;48368;53.406;6.214;2023-10-31T03:31:13;9.20;;;1.73;;
62338;SDS011;48368;53.406;6.214;2023-10-31T03:33:39;9.77;;;2.10;;
62338;SDS011;48368;53.406;6.214;2023-10-31T03:36:06;11.80;;;1.42;;
62338;SDS011;48368;53.406;6.214;2023-10-31T03:38:33;16.90;;;2.10;;
62338;SDS011;48368;53.406;6.214;2023-10-31T03:41:00;10.70;;;1.95;;
62338;SDS011;48368;53.406;6.214;2023-10-31T03:43:26;12.75;;;1.77;;
62338;SDS011;48368;53.406;6.214;2023-10-31T03:45:51;12.63;;;1.98;;
62338;SDS011;48368;53.406;6.214;2023-10-31T03:48:17;10.02;;;2.45;;
62338;SDS011;48368;53.406;6.214;2023-10-31T03:50:43;11.15;;;1.60;;
62338;SDS011;48368;53.406;6.214;2023-10-31T03:53:08;11.10;;;1.90;;
62338;SDS011;48368;53.406;6.214;2023-10-31T03:55:34;8.75;;;2.13;;
62338;SDS011;48368;53.406;6.214;2023-10-31T03:58:00;11.18;;;1.85;;
62338;SDS011;48368;53.406;6.214;2023-10-31T04:00:25;3.97;;;1.02;;
62338;SDS011;48368;53.406;6.214;2023-10-31T04:02:51;7.38;;;1.30;;
62338;SDS011;48368;53.406;6.214;2023-10-31T04:05:17;13.73;;;1.75;;
62338;SDS011;48368;53.406;6.214;2023-10-31T04:07:43;3.33;;;1.00;;
62338;SDS011;48368;53.406;6.214;2023-10-31T04:10:09;6.22;;;1.23;;
62338;SDS011;48368;53.406;6.214;2023-10-31T04:12:35;4.97;;;1.05;;
62338;SDS011;48368;53.406;6.214;2023-10-31T04:15:01;4.88;;;0.75;;
62338;SDS011;48368;53.406;6.214;2023-10-31T04:17:27;7.03;;;1.00;;
62338;SDS011;48368;53.406;6.214;2023-10-31T04:19:58;3.42;;;1.00;;
62338;SDS011;48368;53.406;6.214;2023-10-31T04:22:23;5.18;;;1.00;;
62338;SDS011;48368;53.406;6.214;2023-10-31T04:24:49;7.97;;;1.10;;
62338;SDS011;48368;53.406;6.214;2023-10-31T04:27:15;5.28;;;1.10;;
62338;SDS011;48368;53.406;6.214;2023-10-31T04:29:40;4.53;;;1.20;;
62338;SDS011;48368;53.406;6.214;2023-10-31T04:32:06;5.70;;;1.17;;
62338;SDS011;48368;53.406;6.214;2023-10-31T04:34:31;4.95;;;1.00;;
62338;SDS011;48368;53.406;6.214;2023-10-31T04:36:57;8.90;;;1.30;;
62338;SDS011;48368;53.406;6.214;2023-10-31T04:39:23;6.22;;;1.00;;
62338;SDS011;48368;53.406;6.214;2023-10-31T04:41:49;6.32;;;1.90;;
62338;SDS011;48368;53.406;6.214;2023-10-31T04:44:14;6.97;;;1.27;;
62338;SDS011;48368;53.406;6.214;2023-10-31T04:46:41;6.13;;;1.27;;
62338;SDS011;48368;53.406;6.214;2023-10-31T04:49:07;4.70;;;1.08;;
62338;SDS011;48368;53.406;6.214;2023-10-31T04:51:37;3.95;;;1.23;;
62338;SDS011;48368;53.406;6.214;2023-10-31T04:54:03;6.00;;;1.40;;
62338;SDS011;48368;53.406;6.214;2023-10-31T04:56:29;7.50;;;1.33;;
62338;SDS011;48368;53.406;6.214;2023-10-31T04:58:55;4.53;;;1.50;;
62338;SDS011;48368;53.406;6.214;2023-10-31T05:01:21;9.00;;;1.60;;
62338;SDS011;48368;53.406;6.214;2023-10-31T05:03:46;5.35;;;1.40;;
62338;SDS011;48368;53.406;6.214;2023-10-31T05:06:12;5.20;;;1.45;;
62338;SDS011;48368;53.406;6.214;2023-10-31T05:08:38;5.47;;;1.42;;
62338;SDS011;48368;53.406;6.214;2023-10-31T05:11:03;6.68;;;1.33;;
62338;SDS011;48368;53.406;6.214;2023-10-31T05:13:29;8.25;;;1.42;;
62338;SDS011;48368;53.406;6.214;2023-10-31T05:15:55;5.22;;;1.50;;
62338;SDS011;48368;53.406;6.214;2023-10-31T05:18:21;6.22;;;1.60;;
62338;SDS011;48368;53.406;6.214;2023-10-31T05:20:47;4.00;;;1.33;;
62338;SDS011;48368;53.406;6.214;2023-10-31T05:23:13;7.35;;;1.50;;
62338;SDS011;48368;53.406;6.214;2023-10-31T05:25:39;5.15;;;1.40;;
62338;SDS011;48368;53.406;6.214;2023-10-31T05:28:04;8.68;;;2.30;;
62338;SDS011;48368;53.406;6.214;2023-10-31T05:30:30;6.90;;;1.98;;
62338;SDS011;48368;53.406;6.214;2023-10-31T05:32:56;5.78;;;1.75;;
62338;SDS011;48368;53.406;6.214;2023-10-31T05:35:22;7.78;;;2.08;;
62338;SDS011;48368;53.406;6.214;2023-10-31T05:37:47;5.97;;;2.15;;
62338;SDS011;48368;53.406;6.214;2023-10-31T05:40:14;7.93;;;2.00;;
62338;SDS011;48368;53.406;6.214;2023-10-31T05:42:41;6.97;;;2.33;;
62338;SDS011;48368;53.406;6.214;2023-10-31T05:45:07;8.82;;;2.50;;
62338;SDS011;48368;53.406;6.214;2023-10-31T05:47:33;9.23;;;2.58;;
62338;SDS011;48368;53.406;6.214;2023-10-31T05:49:58;7.78;;;2.65;;
62338;SDS011;48368;53.406;6.214;2023-10-31T05:52:28;5.90;;;2.47;;
62338;SDS011;48368;53.406;6.214;2023-10-31T05:54:55;8.25;;;2.95;;
62338;SDS011;48368;53.406;6.214;2023-10-31T05:57:21;13.02;;;2.63;;
62338;SDS011;48368;53.406;6.214;2023-10-31T05:59:47;9.48;;;2.55;;
62338;SDS011;48368;53.406;6.214;2023-10-31T06:02:13;7.78;;;2.30;;
62338;SDS011;48368;53.406;6.214;2023-10-31T06:04:39;8.63;;;2.25;;
62338;SDS011;48368;53.406;6.214;2023-10-31T06:07:04;4.55;;;1.80;;
62338;SDS011;48368;53.406;6.214;2023-10-31T06:09:30;7.53;;;2.40;;
62338;SDS011;48368;53.406;6.214;2023-10-31T06:11:58;10.77;;;2.20;;
62338;SDS011;48368;53.406;6.214;2023-10-31T06:14:24;9.38;;;1.95;;
62338;SDS011;48368;53.406;6.214;2023-10-31T06:16:50;5.90;;;1.63;;
62338;SDS011;48368;53.406;6.214;2023-10-31T06:19:17;7.28;;;1.70;;
62338;SDS011;48368;53.406;6.214;2023-10-31T06:21:43;10.88;;;2.08;;
62338;SDS011;48368;53.406;6.214;2023-10-31T06:24:09;8.82;;;2.08;;
62338;SDS011;48368;53.406;6.214;2023-10-31T06:26:35;6.00;;;1.88;;
62338;SDS011;48368;53.406;6.214;2023-10-31T06:29:01;8.57;;;1.83;;
62338;SDS011;48368;53.406;6.214;2023-10-31T06:31:26;7.00;;;1.42;;
62338;SDS011;48368;53.406;6.214;2023-10-31T06:33:52;8.00;;;1.58;;
62338;SDS011;48368;53.406;6.214;2023-10-31T06:36:18;4.72;;;1.33;;
62338;SDS011;48368;53.406;6.214;2023-10-31T06:38:43;5.00;;;1.25;;
62338;SDS011;48368;53.406;6.214;2023-10-31T06:41:09;8.57;;;1.25;;
62338;SDS011;48368;53.406;6.214;2023-10-31T06:43:35;6.47;;;1.25;;
62338;SDS011;48368;53.406;6.214;2023-10-31T06:46:00;8.98;;;1.67;;
62338;SDS011;48368;53.406;6.214;2023-10-31T06:48:29;6.65;;;1.05;;
62338;SDS011;48368;53.406;6.214;2023-10-31T06:50:55;8.13;;;0.95;;
62338;SDS011;48368;53.406;6.214;2023-10-31T06:53:20;6.90;;;0.80;;
62338;SDS011;48368;53.406;6.214;2023-10-31T06:55:46;5.55;;;1.00;;
62338;SDS011;48368;53.406;6.214;2023-10-31T06:58:12;4.07;;;0.65;;
62338;SDS011;48368;53.406;6.214;2023-10-31T07:00:37;7.60;;;1.05;;
62338;SDS011;48368;53.406;6.214;2023-10-31T07:03:03;12.55;;;1.13;;
62338;SDS011;48368;53.406;6.214;2023-10-31T07:05:34;7.93;;;0.90;;
62338;SDS011;48368;53.406;6.214;2023-10-31T07:08:02;8.63;;;0.70;;
62338;SDS011;48368;53.406;6.214;2023-10-31T07:10:29;10.43;;;0.82;;
62338;SDS011;48368;53.406;6.214;2023-10-31T07:12:55;4.97;;;0.77;;
62338;SDS011;48368;53.406;6.214;2023-10-31T07:15:21;4.18;;;0.70;;
62338;SDS011;48368;53.406;6.214;2023-10-31T07:17:46;3.63;;;0.60;;
62338;SDS011;48368;53.406;6.214;2023-10-31T07:20:13;2.95;;;0.40;;
62338;SDS011;48368;53.406;6.214;2023-10-31T07:22:39;4.95;;;0.50;;
62338;SDS011;48368;53.406;6.214;2023-10-31T07:25:05;9.38;;;1.13;;
62338;SDS011;48368;53.406;6.214;2023-10-31T07:27:32;6.68;;;1.20;;
62338;SDS011;48368;53.406;6.214;2023-10-31T07:29:57;9.60;;;1.02;;
62338;SDS011;48368;53.406;6.214;2023-10-31T07:32:23;13.20;;;1.80;;
62338;SDS011;48368;53.406;6.214;2023-10-31T07:34:50;14.75;;;1.13;;
62338;SDS011;48368;53.406;6.214;2023-10-31T07:37:15;19.23;;;1.85;;
62338;SDS011;48368;53.406;6.214;2023-10-31T07:39:41;19.05;;;2.33;;
62338;SDS011;48368;53.406;6.214;2023-10-31T07:42:07;15.40;;;2.70;;
62338;SDS011;48368;53.406;6.214;2023-10-31T07:44:33;15.95;;;1.58;;
62338;SDS011;48368;53.406;6.214;2023-10-31T07:46:59;13.85;;;1.88;;
62338;SDS011;48368;53.406;6.214;2023-10-31T07:49:25;10.52;;;1.05;;
62338;SDS011;48368;53.406;6.214;2023-10-31T07:51:50;11.38;;;1.92;;
62338;SDS011;48368;53.406;6.214;2023-10-31T07:54:16;8.65;;;1.73;;
62338;SDS011;48368;53.406;6.214;2023-10-31T07:56:42;13.43;;;1.33;;
62338;SDS011;48368;53.406;6.214;2023-10-31T07:59:08;8.35;;;1.60;;
62338;SDS011;48368;53.406;6.214;2023-10-31T08:01:34;12.65;;;1.40;;
62338;SDS011;48368;53.406;6.214;2023-10-31T08:04:00;11.02;;;1.00;;
62338;SDS011;48368;53.406;6.214;2023-10-31T08:06:26;9.60;;;1.02;;
62338;SDS011;48368;53.406;6.214;2023-10-31T08:08:51;11.05;;;0.70;;
62338;SDS011;48368;53.406;6.214;2023-10-31T08:11:17;10.82;;;2.15;;
62338;SDS011;48368;53.406;6.214;2023-10-31T08:13:43;8.75;;;0.80;;
62338;SDS011;48368;53.406;6.214;2023-10-31T08:16:09;8.32;;;1.25;;
62338;SDS011;48368;53.406;6.214;2023-10-31T08:18:35;9.25;;;1.80;;
62338;SDS011;48368;53.406;6.214;2023-10-31T08:21:01;3.92;;;0.60;;
62338;SDS011;48368;53.406;6.214;2023-10-31T08:23:28;12.25;;;1.17;;
62338;SDS011;48368;53.406;6.214;2023-10-31T08:25:54;8.30;;;1.13;;
62338;SDS011;48368;53.406;6.214;2023-10-31T08:28:19;9.40;;;1.10;;
62338;SDS011;48368;53.406;6.214;2023-10-31T08:30:45;6.28;;;0.90;;
62338;SDS011;48368;53.406;6.214;2023-10-31T08:33:11;4.68;;;0.47;;
62338;SDS011;48368;53.406;6.214;2023-10-31T08:35:37;4.43;;;1.20;;
62338;SDS011;48368;53.406;6.214;2023-10-31T08:38:03;8.02;;;0.50;;
62338;SDS011;48368;53.406;6.214;2023-10-31T08:40:28;4.90;;;0.75;;
62338;SDS011;48368;53.406;6.214;2023-10-31T08:42:54;9.02;;;0.50;;
62338;SDS011;48368;53.406;6.214;2023-10-31T08:45:20;9.48;;;0.80;;
62338;SDS011;48368;53.406;6.214;2023-10-31T08:47:46;4.13;;;0.40;;
62338;SDS011;48368;53.406;6.214;2023-10-31T08:50:12;12.10;;;1.00;;
62338;SDS011;48368;53.406;6.214;2023-10-31T08:52:38;9.13;;;0.82;;
62338;SDS011;48368;53.406;6.214;2023-10-31T08:55:04;9.35;;;1.17;;
62338;SDS011;48368;53.406;6.214;2023-10-31T08:57:31;10.43;;;0.93;;
62338;SDS011;48368;53.406;6.214;2023-10-31T08:59:58;4.85;;;1.00;;
62338;SDS011;48368;53.406;6.214;2023-10-31T09:02:24;10.57;;;1.02;;
62338;SDS011;48368;53.406;6.214;2023-10-31T09:04:50;7.40;;;0.63;;
62338;SDS011;48368;53.406;6.214;2023-10-31T09:07:15;3.05;;;0.70;;
62338;SDS011;48368;53.406;6.214;2023-10-31T09:09:41;12.90;;;0.80;;
62338;SDS011;48368;53.406;6.214;2023-10-31T09:12:07;5.30;;;0.80;;
62338;SDS011;48368;53.406;6.214;2023-10-31T09:14:33;6.25;;;0.43;;
62338;SDS011;48368;53.406;6.214;2023-10-31T09:17:00;6.75;;;0.90;;
62338;SDS011;48368;53.406;6.214;2023-10-31T09:19:27;8.65;;;1.02;;
62338;SDS011;48368;53.406;6.214;2023-10-31T09:21:54;7.15;;;0.60;;
62338;SDS011;48368;53.406;6.214;2023-10-31T09:24:20;7.43;;;0.60;;
62338;SDS011;48368;53.406;6.214;2023-10-31T09:26:46;7.25;;;1.13;;
62338;SDS011;48368;53.406;6.214;2023-10-31T09:29:11;8.32;;;0.85;;
62338;SDS011;48368;53.406;6.214;2023-10-31T09:31:37;8.60;;;0.73;;
62338;SDS011;48368;53.406;6.214;2023-10-31T09:34:03;5.38;;;0.95;;
62338;SDS011;48368;53.406;6.214;2023-10-31T09:36:31;8.13;;;0.85;;
62338;SDS011;48368;53.406;6.214;2023-10-31T09:38:57;7.68;;;1.40;;
62338;SDS011;48368;53.406;6.214;2023-10-31T09:41:23;9.77;;;0.98;;
62338;SDS011;48368;53.406;6.214;2023-10-31T09:43:49;6.15;;;0.60;;
62338;SDS011;48368;53.406;6.214;2023-10-31T09:46:15;7.80;;;0.73;;
62338;SDS011;48368;53.406;6.214;2023-10-31T09:48:42;8.68;;;0.80;;
62338;SDS011;48368;53.406;6.214;2023-10-31T09:51:08;11.18;;;1.33;;
62338;SDS011;48368;53.406;6.214;2023-10-31T09:53:37;4.03;;;0.60;;
62338;SDS011;48368;53.406;6.214;2023-10-31T09:56:04;9.82;;;1.17;;
62338;SDS011;48368;53.406;6.214;2023-10-31T09:58:31;5.90;;;1.50;;
62338;SDS011;48368;53.406;6.214;2023-10-31T10:00:56;5.57;;;0.70;;
62338;SDS011;48368;53.406;6.214;2023-10-31T10:03:22;9.70;;;1.35;;
62338;SDS011;48368;53.406;6.214;2023-10-31T10:05:49;4.43;;;0.70;;
62338;SDS011;48368;53.406;6.214;2023-10-31T10:08:15;10.10;;;0.75;;
62338;SDS011;48368;53.406;6.214;2023-10-31T10:10:41;6.97;;;1.08;;
62338;SDS011;48368;53.406;6.214;2023-10-31T10:13:07;8.00;;;0.73;;
62338;SDS011;48368;53.406;6.214;2023-10-31T10:15:46;14.10;;;1.10;;
62338;SDS011;48368;53.406;6.214;2023-10-31T10:18:27;4.88;;;0.77;;
62338;SDS011;48368;53.406;6.214;2023-10-31T10:20:59;4.95;;;1.08;;
62338;SDS011;48368;53.406;6.214;2023-10-31T10:23:26;6.20;;;1.27;;
62338;SDS011;48368;53.406;6.214;2023-10-31T10:25:54;9.40;;;0.90;;
62338;SDS011;48368;53.406;6.214;2023-10-31T10:28:20;6.85;;;0.90;;
62338;SDS011;48368;53.406;6.214;2023-10-31T10:30:47;4.30;;;0.65;;
62338;SDS011;48368;53.406;6.214;2023-10-31T10:33:14;10.65;;;1.30;;
62338;SDS011;48368;53.406;6.214;2023-10-31T10:35:40;6.60;;;0.80;;
62338;SDS011;48368;53.406;6.214;2023-10-31T10:38:10;6.95;;;1.30;;
62338;SDS011;48368;53.406;6.214;2023-10-31T10:40:41;6.22;;;1.00;;
62338;SDS011;48368;53.406;6.214;2023-10-31T10:43:20;12.27;;;1.10;;
62338;SDS011;48368;53.406;6.214;2023-10-31T10:45:50;11.35;;;1.40;;
62338;SDS011;48368;53.406;6.214;2023-10-31T10:48:22;4.80;;;0.82;;
62338;SDS011;48368;53.406;6.214;2023-10-31T10:50:51;4.57;;;0.60;;
62338;SDS011;48368;53.406;6.214;2023-10-31T10:53:25;6.68;;;0.95;;
62338;SDS011;48368;53.406;6.214;2023-10-31T10:55:59;9.48;;;1.05;;
62338;SDS011;48368;53.406;6.214;2023-10-31T11:01:17;7.47;;;0.70;;
62338;SDS011;48368;53.406;6.214;2023-10-31T11:03:44;6.30;;;1.00;;
62338;SDS011;48368;53.406;6.214;2023-10-31T11:06:11;6.57;;;1.05;;
62338;SDS011;48368;53.406;6.214;2023-10-31T11:08:38;10.75;;;1.05;;
62338;SDS011;48368;53.406;6.214;2023-10-31T11:11:05;4.22;;;0.60;;
62338;SDS011;48368;53.406;6.214;2023-10-31T11:13:31;6.07;;;0.90;;
62338;SDS011;48368;53.406;6.214;2023-10-31T11:15:59;11.70;;;1.33;;
62338;SDS011;48368;53.406;6.214;2023-10-31T11:18:30;8.98;;;1.10;;
62338;SDS011;48368;53.406;6.214;2023-10-31T11:20:56;8.13;;;0.88;;
62338;SDS011;48368;53.406;6.214;2023-10-31T11:23:22;6.43;;;1.00;;
62338;SDS011;48368;53.406;6.214;2023-10-31T11:25:51;7.28;;;1.40;;
62338;SDS011;48368;53.406;6.214;2023-10-31T11:28:18;6.40;;;0.98;;
62338;SDS011;48368;53.406;6.214;2023-10-31T11:30:45;5.10;;;0.77;;
62338;SDS011;48368;53.406;6.214;2023-10-31T11:33:14;11.45;;;1.05;;
62338;SDS011;48368;53.406;6.214;2023-10-31T11:35:41;5.55;;;1.00;;
62338;SDS011;48368;53.406;6.214;2023-10-31T11:38:10;10.25;;;0.82;;
62338;SDS011;48368;53.406;6.214;2023-10-31T11:43:15;6.38;;;0.65;;
62338;SDS011;48368;53.406;6.214;2023-10-31T11:45:42;5.32;;;0.85;;
62338;SDS011;48368;53.406;6.214;2023-10-31T11:48:10;6.10;;;0.77;;
62338;SDS011;48368;53.406;6.214;2023-10-31T11:50:36;9.68;;;0.65;;
62338;SDS011;48368;53.406;6.214;2023-10-31T11:55:31;8.95;;;0.82;;
62338;SDS011;48368;53.406;6.214;2023-10-31T11:58:13;9.82;;;1.00;;
62338;SDS011;48368;53.406;6.214;2023-10-31T12:00:40;7.43;;;0.88;;
62338;SDS011;48368;53.406;6.214;2023-10-31T12:03:06;10.70;;;1.27;;
62338;SDS011;48368;53.406;6.214;2023-10-31T12:05:31;6.18;;;0.80;;
62338;SDS011;48368;53.406;6.214;2023-10-31T12:07:57;7.18;;;0.90;;
62338;SDS011;48368;53.406;6.214;2023-10-31T12:10:26;9.70;;;1.20;;
62338;SDS011;48368;53.406;6.214;2023-10-31T12:12:57;6.63;;;0.85;;
62338;SDS011;48368;53.406;6.214;2023-10-31T12:15:23;4.80;;;0.80;;
62338;SDS011;48368;53.406;6.214;2023-10-31T12:17:49;4.90;;;1.00;;
62338;SDS011;48368;53.406;6.214;2023-10-31T12:20:16;8.93;;;0.90;;
62338;SDS011;48368;53.406;6.214;2023-10-31T12:22:42;8.38;;;1.35;;
62338;SDS011;48368;53.406;6.214;2023-10-31T12:25:10;4.35;;;0.75;;
62338;SDS011;48368;53.406;6.214;2023-10-31T12:27:43;4.60;;;1.17;;
62338;SDS011;48368;53.406;6.214;2023-10-31T12:30:14;3.00;;;0.60;;
62338;SDS011;48368;53.406;6.214;2023-10-31T12:32:42;7.13;;;1.50;;
62338;SDS011;48368;53.406;6.214;2023-10-31T12:35:12;4.38;;;1.00;;
62338;SDS011;48368;53.406;6.214;2023-10-31T12:37:45;4.57;;;0.85;;
62338;SDS011;48368;53.406;6.214;2023-10-31T12:40:20;6.75;;;0.50;;
62338;SDS011;48368;53.406;6.214;2023-10-31T12:42:47;7.60;;;1.25;;
62338;SDS011;48368;53.406;6.214;2023-10-31T12:45:14;8.57;;;1.65;;
62338;SDS011;48368;53.406;6.214;2023-10-31T12:47:40;5.60;;;0.88;;
62338;SDS011;48368;53.406;6.214;2023-10-31T12:50:15;8.63;;;0.80;;
62338;SDS011;48368;53.406;6.214;2023-10-31T12:52:54;6.07;;;0.80;;
62338;SDS011;48368;53.406;6.214;2023-10-31T12:55:23;4.78;;;0.80;;
62338;SDS011;48368;53.406;6.214;2023-10-31T12:57:50;7.97;;;0.63;;
62338;SDS011;48368;53.406;6.214;2023-10-31T13:00:17;5.10;;;1.17;;
62338;SDS011;48368;53.406;6.214;2023-10-31T13:02:49;5.82;;;0.73;;
62338;SDS011;48368;53.406;6.214;2023-10-31T13:05:25;5.50;;;0.60;;
62338;SDS011;48368;53.406;6.214;2023-10-31T13:07:52;6.60;;;0.80;;
62338;SDS011;48368;53.406;6.214;2023-10-31T13:10:20;5.88;;;1.05;;
62338;SDS011;48368;53.406;6.214;2023-10-31T13:12:47;4.63;;;0.88;;
62338;SDS011;48368;53.406;6.214;2023-10-31T13:15:13;5.60;;;1.48;;
62338;SDS011;48368;53.406;6.214;2023-10-31T13:17:40;4.28;;;0.68;;
62338;SDS011;48368;53.406;6.214;2023-10-31T13:20:09;2.63;;;0.60;;
62338;SDS011;48368;53.406;6.214;2023-10-31T13:22:40;5.28;;;0.90;;
62338;SDS011;48368;53.406;6.214;2023-10-31T13:25:07;4.30;;;0.95;;
62338;SDS011;48368;53.406;6.214;2023-10-31T13:27:37;6.40;;;0.95;;
62338;SDS011;48368;53.406;6.214;2023-10-31T13:30:04;6.20;;;0.50;;
62338;SDS011;48368;53.406;6.214;2023-10-31T13:32:30;6.22;;;0.70;;
62338;SDS011;48368;53.406;6.214;2023-10-31T13:34:56;6.95;;;1.40;;
62338;SDS011;48368;53.406;6.214;2023-10-31T13:37:22;5.72;;;1.55;;
62338;SDS011;48368;53.406;6.214;2023-10-31T13:39:48;4.45;;;0.52;;
62338;SDS011;48368;53.406;6.214;2023-10-31T13:42:14;6.60;;;0.55;;
62338;SDS011;48368;53.406;6.214;2023-10-31T13:44:43;4.15;;;0.70;;
62338;SDS011;48368;53.406;6.214;2023-10-31T13:47:09;5.95;;;0.52;;
62338;SDS011;48368;53.406;6.214;2023-10-31T13:49:38;5.90;;;0.47;;
62338;SDS011;48368;53.406;6.214;2023-10-31T13:52:04;3.65;;;0.30;;
62338;SDS011;48368;53.406;6.214;2023-10-31T13:54:31;4.50;;;0.52;;
62338;SDS011;48368;53.406;6.214;2023-10-31T13:57:00;4.63;;;0.32;;
62338;SDS011;48368;53.406;6.214;2023-10-31T13:59:25;4.78;;;0.77;;
62338;SDS011;48368;53.406;6.214;2023-10-31T14:01:51;6.32;;;0.60;;
62338;SDS011;48368;53.406;6.214;2023-10-31T14:04:18;2.03;;;0.60;;
62338;SDS011;48368;53.406;6.214;2023-10-31T14:06:44;3.85;;;0.50;;
62338;SDS011;48368;53.406;6.214;2023-10-31T14:09:10;2.40;;;0.60;;
62338;SDS011;48368;53.406;6.214;2023-10-31T14:11:37;5.13;;;0.70;;
62338;SDS011;48368;53.406;6.214;2023-10-31T14:14:04;7.05;;;0.70;;
62338;SDS011;48368;53.406;6.214;2023-10-31T14:16:41;4.03;;;0.80;;
62338;SDS011;48368;53.406;6.214;2023-10-31T14:19:10;5.00;;;0.50;;
62338;SDS011;48368;53.406;6.214;2023-10-31T14:21:38;4.75;;;0.43;;
62338;SDS011;48368;53.406;6.214;2023-10-31T14:24:06;2.78;;;0.55;;
62338;SDS011;48368;53.406;6.214;2023-10-31T14:26:33;3.97;;;1.17;;
62338;SDS011;48368;53.406;6.214;2023-10-31T14:28:59;8.60;;;0.80;;
62338;SDS011;48368;53.406;6.214;2023-10-31T14:31:25;8.25;;;1.00;;
62338;SDS011;48368;53.406;6.214;2023-10-31T14:33:51;5.80;;;0.77;;
62338;SDS011;48368;53.406;6.214;2023-10-31T14:36:16;4.63;;;0.70;;
62338;SDS011;48368;53.406;6.214;2023-10-31T14:38:42;5.30;;;0.70;;
62338;SDS011;48368;53.406;6.214;2023-10-31T14:41:08;2.72;;;0.57;;
62338;SDS011;48368;53.406;6.214;2023-10-31T14:43:34;4.25;;;0.60;;
62338;SDS011;48368;53.406;6.214;2023-10-31T14:46:00;4.20;;;0.60;;
62338;SDS011;48368;53.406;6.214;2023-10-31T14:48:26;4.20;;;1.30;;